sensor_id;sensor_type;location;lat;lon;timestamp;P1;durP1;ratioP1;P2;durP2;ratioP2
55031;SDS011;40928;51.076;7.950;2022-08-02T00:00:10;3.05;;;1.70;;
55031;SDS011;40928;51.076;7.950;2022-08-02T00:02:38;1.52;;;1.42;;
55031;SDS011;40928;51.076;7.950;2022-08-02T00:05:05;2.08;;;1.40;;
55031;SDS011;40928;51.076;7.950;2022-08-02T00:07:31;1.60;;;1.40;;
55031;SDS011;40928;51.076;7.950;2022-08-02T00:09:57;4.32;;;1.50;;
55031;SDS011;40928;51.076;7.950;2022-08-02T00:12:22;2.13;;;1.70;;
55031;SDS011;40928;51.076;7.950;2022-08-02T00:14:48;1.38;;;1.27;;
55031;SDS011;40928;51.076;7.950;2022-08-02T00:17:14;1.70;;;1.42;;
55031;SDS011;40928;51.076;7.950;2022-08-02T00:19:39;3.97;;;1.50;;
55031;SDS011;40928;51.076;7.950;2022-08-02T00:22:06;1.45;;;1.25;;
55031;SDS011;40928;51.076;7.950;2022-08-02T00:24:31;2.30;;;1.27;;
55031;SDS011;40928;51.076;7.950;2022-08-02T00:26:57;2.00;;;1.20;;
55031;SDS011;40928;51.076;7.950;2022-08-02T00:29:23;2.90;;;1.52;;
55031;SDS011;40928;51.076;7.950;2022-08-02T00:31:49;1.73;;;1.48;;
55031;SDS011;40928;51.076;7.950;2022-08-02T00:34:14;2.90;;;1.63;;
55031;SDS011;40928;51.076;7.950;2022-08-02T00:36:40;1.67;;;1.40;;
55031;SDS011;40928;51.076;7.950;2022-08-02T00:39:05;2.33;;;1.58;;
55031;SDS011;40928;51.076;7.950;2022-08-02T00:41:31;2.10;;;1.58;;
55031;SDS011;40928;51.076;7.950;2022-08-02T00:43:56;1.98;;;1.77;;
55031;SDS011;40928;51.076;7.950;2022-08-02T00:46:22;5.75;;;1.45;;
55031;SDS011;40928;51.076;7.950;2022-08-02T00:48:47;3.55;;;1.80;;
55031;SDS011;40928;51.076;7.950;2022-08-02T00:51:14;5.13;;;2.38;;
55031;SDS011;40928;51.076;7.950;2022-08-02T00:53:40;4.03;;;1.40;;
55031;SDS011;40928;51.076;7.950;2022-08-02T00:56:06;1.50;;;1.40;;
55031;SDS011;40928;51.076;7.950;2022-08-02T00:58:31;2.97;;;1.33;;
55031;SDS011;40928;51.076;7.950;2022-08-02T01:00:57;2.38;;;1.70;;
55031;SDS011;40928;51.076;7.950;2022-08-02T01:03:25;5.35;;;1.85;;
55031;SDS011;40928;51.076;7.950;2022-08-02T01:05:51;3.40;;;1.60;;
55031;SDS011;40928;51.076;7.950;2022-08-02T01:08:16;5.07;;;1.90;;
55031;SDS011;40928;51.076;7.950;2022-08-02T01:10:43;5.28;;;1.60;;
55031;SDS011;40928;51.076;7.950;2022-08-02T01:13:08;2.58;;;1.80;;
55031;SDS011;40928;51.076;7.950;2022-08-02T01:15:34;2.05;;;1.60;;
55031;SDS011;40928;51.076;7.950;2022-08-02T01:18:05;3.13;;;1.63;;
55031;SDS011;40928;51.076;7.950;2022-08-02T01:26:42;1.70;;;1.50;;
55031;SDS011;40928;51.076;7.950;2022-08-02T01:29:52;2.72;;;1.65;;
55031;SDS011;40928;51.076;7.950;2022-08-02T01:32:07;4.88;;;1.60;;
55031;SDS011;40928;51.076;7.950;2022-08-02T01:34:42;1.92;;;1.27;;
55031;SDS011;40928;51.076;7.950;2022-08-02T01:39:39;1.85;;;1.38;;
55031;SDS011;40928;51.076;7.950;2022-08-02T01:42:07;3.55;;;2.08;;
55031;SDS011;40928;51.076;7.950;2022-08-02T01:44:35;3.55;;;1.77;;
55031;SDS011;40928;51.076;7.950;2022-08-02T01:47:08;6.85;;;2.00;;
55031;SDS011;40928;51.076;7.950;2022-08-02T01:49:39;2.05;;;1.70;;
55031;SDS011;40928;51.076;7.950;2022-08-02T01:52:07;2.17;;;1.48;;
55031;SDS011;40928;51.076;7.950;2022-08-02T01:54:58;2.95;;;1.95;;
55031;SDS011;40928;51.076;7.950;2022-08-02T01:57:40;2.57;;;1.80;;
55031;SDS011;40928;51.076;7.950;2022-08-02T02:00:14;3.30;;;1.73;;
55031;SDS011;40928;51.076;7.950;2022-08-02T02:02:42;6.43;;;1.95;;
55031;SDS011;40928;51.076;7.950;2022-08-02T02:05:15;1.98;;;1.50;;
55031;SDS011;40928;51.076;7.950;2022-08-02T02:07:43;8.35;;;1.52;;
55031;SDS011;40928;51.076;7.950;2022-08-02T02:10:14;2.85;;;1.77;;
55031;SDS011;40928;51.076;7.950;2022-08-02T02:12:43;2.83;;;1.60;;
55031;SDS011;40928;51.076;7.950;2022-08-02T02:15:12;5.07;;;1.70;;
55031;SDS011;40928;51.076;7.950;2022-08-02T02:17:40;3.13;;;1.63;;
55031;SDS011;40928;51.076;7.950;2022-08-02T02:20:18;2.90;;;1.73;;
55031;SDS011;40928;51.076;7.950;2022-08-02T02:22:45;4.07;;;1.60;;
55031;SDS011;40928;51.076;7.950;2022-08-02T02:25:11;2.42;;;2.00;;
55031;SDS011;40928;51.076;7.950;2022-08-02T02:27:46;8.02;;;1.75;;
55031;SDS011;40928;51.076;7.950;2022-08-02T02:30:29;3.67;;;1.92;;
55031;SDS011;40928;51.076;7.950;2022-08-02T02:32:57;5.07;;;2.30;;
55031;SDS011;40928;51.076;7.950;2022-08-02T02:35:28;3.03;;;1.90;;
55031;SDS011;40928;51.076;7.950;2022-08-02T02:37:58;9.23;;;2.25;;
55031;SDS011;40928;51.076;7.950;2022-08-02T02:40:27;2.60;;;1.70;;
55031;SDS011;40928;51.076;7.950;2022-08-02T02:42:54;7.07;;;2.13;;
55031;SDS011;40928;51.076;7.950;2022-08-02T02:45:21;2.92;;;2.20;;
55031;SDS011;40928;51.076;7.950;2022-08-02T02:47:48;4.57;;;2.00;;
55031;SDS011;40928;51.076;7.950;2022-08-02T02:50:15;3.08;;;1.92;;
55031;SDS011;40928;51.076;7.950;2022-08-02T02:52:42;4.47;;;1.90;;
55031;SDS011;40928;51.076;7.950;2022-08-02T02:55:08;2.20;;;1.83;;
55031;SDS011;40928;51.076;7.950;2022-08-02T02:57:35;2.50;;;1.70;;
55031;SDS011;40928;51.076;7.950;2022-08-02T03:00:12;2.45;;;1.70;;
55031;SDS011;40928;51.076;7.950;2022-08-02T03:02:39;2.10;;;1.90;;
55031;SDS011;40928;51.076;7.950;2022-08-02T03:05:07;2.03;;;1.83;;
55031;SDS011;40928;51.076;7.950;2022-08-02T03:07:34;5.10;;;2.00;;
55031;SDS011;40928;51.076;7.950;2022-08-02T03:10:01;6.45;;;2.00;;
55031;SDS011;40928;51.076;7.950;2022-08-02T03:12:28;3.45;;;1.85;;
55031;SDS011;40928;51.076;7.950;2022-08-02T03:14:56;2.78;;;2.00;;
55031;SDS011;40928;51.076;7.950;2022-08-02T03:17:22;4.53;;;2.53;;
55031;SDS011;40928;51.076;7.950;2022-08-02T03:19:48;3.35;;;2.28;;
55031;SDS011;40928;51.076;7.950;2022-08-02T03:22:13;2.67;;;1.98;;
55031;SDS011;40928;51.076;7.950;2022-08-02T03:24:39;2.92;;;2.28;;
55031;SDS011;40928;51.076;7.950;2022-08-02T03:27:04;3.33;;;1.95;;
55031;SDS011;40928;51.076;7.950;2022-08-02T03:29:30;3.53;;;2.30;;
55031;SDS011;40928;51.076;7.950;2022-08-02T03:31:56;3.30;;;2.20;;
55031;SDS011;40928;51.076;7.950;2022-08-02T03:34:22;3.72;;;2.53;;
55031;SDS011;40928;51.076;7.950;2022-08-02T03:36:49;7.30;;;2.78;;
55031;SDS011;40928;51.076;7.950;2022-08-02T03:39:19;2.33;;;1.75;;
55031;SDS011;40928;51.076;7.950;2022-08-02T03:41:45;3.10;;;2.10;;
55031;SDS011;40928;51.076;7.950;2022-08-02T03:44:12;3.92;;;2.38;;
55031;SDS011;40928;51.076;7.950;2022-08-02T03:46:38;5.78;;;2.72;;
55031;SDS011;40928;51.076;7.950;2022-08-02T03:49:05;2.33;;;2.00;;
55031;SDS011;40928;51.076;7.950;2022-08-02T03:51:32;4.13;;;2.30;;
55031;SDS011;40928;51.076;7.950;2022-08-02T03:54:00;7.57;;;2.85;;
55031;SDS011;40928;51.076;7.950;2022-08-02T03:56:27;5.13;;;2.35;;
55031;SDS011;40928;51.076;7.950;2022-08-02T03:59:05;4.20;;;2.50;;
55031;SDS011;40928;51.076;7.950;2022-08-02T04:01:32;3.25;;;2.35;;
55031;SDS011;40928;51.076;7.950;2022-08-02T04:03:58;3.47;;;1.83;;
55031;SDS011;40928;51.076;7.950;2022-08-02T04:06:23;3.80;;;2.38;;
55031;SDS011;40928;51.076;7.950;2022-08-02T04:08:49;3.25;;;1.83;;
55031;SDS011;40928;51.076;7.950;2022-08-02T04:11:17;4.53;;;2.70;;
55031;SDS011;40928;51.076;7.950;2022-08-02T04:13:54;2.60;;;2.00;;
55031;SDS011;40928;51.076;7.950;2022-08-02T04:16:21;3.90;;;2.53;;
55031;SDS011;40928;51.076;7.950;2022-08-02T04:18:54;2.20;;;1.70;;
55031;SDS011;40928;51.076;7.950;2022-08-02T04:21:25;5.35;;;2.55;;
55031;SDS011;40928;51.076;7.950;2022-08-02T04:23:55;4.35;;;2.80;;
55031;SDS011;40928;51.076;7.950;2022-08-02T04:26:21;2.85;;;2.38;;
55031;SDS011;40928;51.076;7.950;2022-08-02T04:28:48;4.03;;;2.55;;
55031;SDS011;40928;51.076;7.950;2022-08-02T04:31:17;5.88;;;2.78;;
55031;SDS011;40928;51.076;7.950;2022-08-02T04:33:43;5.40;;;3.10;;
55031;SDS011;40928;51.076;7.950;2022-08-02T04:36:10;5.38;;;3.00;;
55031;SDS011;40928;51.076;7.950;2022-08-02T04:38:38;4.68;;;3.03;;
55031;SDS011;40928;51.076;7.950;2022-08-02T04:41:04;3.67;;;2.85;;
55031;SDS011;40928;51.076;7.950;2022-08-02T04:43:33;4.90;;;3.72;;
55031;SDS011;40928;51.076;7.950;2022-08-02T04:46:06;3.55;;;2.95;;
55031;SDS011;40928;51.076;7.950;2022-08-02T04:48:39;4.13;;;3.30;;
55031;SDS011;40928;51.076;7.950;2022-08-02T04:51:05;4.25;;;3.08;;
55031;SDS011;40928;51.076;7.950;2022-08-02T04:53:30;6.28;;;3.35;;
55031;SDS011;40928;51.076;7.950;2022-08-02T04:55:56;5.90;;;4.00;;
55031;SDS011;40928;51.076;7.950;2022-08-02T04:58:21;8.00;;;3.55;;
55031;SDS011;40928;51.076;7.950;2022-08-02T05:00:47;5.53;;;3.78;;
55031;SDS011;40928;51.076;7.950;2022-08-02T05:03:12;6.18;;;4.15;;
55031;SDS011;40928;51.076;7.950;2022-08-02T05:05:38;7.20;;;4.28;;
55031;SDS011;40928;51.076;7.950;2022-08-02T05:08:04;7.30;;;5.03;;
55031;SDS011;40928;51.076;7.950;2022-08-02T05:10:29;7.70;;;4.35;;
55031;SDS011;40928;51.076;7.950;2022-08-02T05:12:55;5.95;;;4.25;;
55031;SDS011;40928;51.076;7.950;2022-08-02T05:15:20;6.00;;;4.22;;
55031;SDS011;40928;51.076;7.950;2022-08-02T05:17:46;7.03;;;4.35;;
55031;SDS011;40928;51.076;7.950;2022-08-02T05:20:12;8.23;;;4.13;;
55031;SDS011;40928;51.076;7.950;2022-08-02T05:22:39;5.28;;;3.70;;
55031;SDS011;40928;51.076;7.950;2022-08-02T05:25:05;3.95;;;2.90;;
55031;SDS011;40928;51.076;7.950;2022-08-02T05:27:31;4.25;;;3.17;;
55031;SDS011;40928;51.076;7.950;2022-08-02T05:30:00;8.52;;;3.00;;
55031;SDS011;40928;51.076;7.950;2022-08-02T05:32:25;3.35;;;2.35;;
55031;SDS011;40928;51.076;7.950;2022-08-02T05:34:52;2.75;;;2.17;;
55031;SDS011;40928;51.076;7.950;2022-08-02T05:37:17;8.35;;;5.25;;
55031;SDS011;40928;51.076;7.950;2022-08-02T05:39:43;7.68;;;4.75;;
55031;SDS011;40928;51.076;7.950;2022-08-02T05:42:09;6.13;;;3.58;;
55031;SDS011;40928;51.076;7.950;2022-08-02T05:44:35;4.57;;;2.97;;
55031;SDS011;40928;51.076;7.950;2022-08-02T05:47:00;3.90;;;3.08;;
55031;SDS011;40928;51.076;7.950;2022-08-02T05:49:26;3.05;;;2.47;;
55031;SDS011;40928;51.076;7.950;2022-08-02T05:51:55;3.65;;;2.78;;
55031;SDS011;40928;51.076;7.950;2022-08-02T05:54:35;3.30;;;2.65;;
55031;SDS011;40928;51.076;7.950;2022-08-02T05:57:13;2.97;;;2.60;;
55031;SDS011;40928;51.076;7.950;2022-08-02T06:02:29;2.35;;;2.15;;
55031;SDS011;40928;51.076;7.950;2022-08-02T06:05:16;2.45;;;1.95;;
55031;SDS011;40928;51.076;7.950;2022-08-02T06:07:45;2.30;;;2.10;;
55031;SDS011;40928;51.076;7.950;2022-08-02T06:10:12;4.65;;;2.15;;
55031;SDS011;40928;51.076;7.950;2022-08-02T06:12:51;1.77;;;1.50;;
55031;SDS011;40928;51.076;7.950;2022-08-02T06:15:25;2.45;;;2.25;;
55031;SDS011;40928;51.076;7.950;2022-08-02T06:17:51;3.92;;;2.97;;
55031;SDS011;40928;51.076;7.950;2022-08-02T06:20:17;6.25;;;5.05;;
55031;SDS011;40928;51.076;7.950;2022-08-02T06:22:45;4.88;;;3.63;;
55031;SDS011;40928;51.076;7.950;2022-08-02T06:25:11;2.90;;;2.60;;
55031;SDS011;40928;51.076;7.950;2022-08-02T06:27:38;2.92;;;2.35;;
55031;SDS011;40928;51.076;7.950;2022-08-02T06:30:06;2.38;;;1.95;;
55031;SDS011;40928;51.076;7.950;2022-08-02T06:32:35;3.08;;;2.65;;
55031;SDS011;40928;51.076;7.950;2022-08-02T06:35:01;2.78;;;2.55;;
55031;SDS011;40928;51.076;7.950;2022-08-02T06:42:50;1.60;;;1.50;;
55031;SDS011;40928;51.076;7.950;2022-08-02T06:45:22;2.47;;;2.03;;
55031;SDS011;40928;51.076;7.950;2022-08-02T06:47:48;4.80;;;3.30;;
55031;SDS011;40928;51.076;7.950;2022-08-02T06:50:13;3.80;;;3.22;;
55031;SDS011;40928;51.076;7.950;2022-08-02T06:52:39;2.95;;;2.70;;
55031;SDS011;40928;51.076;7.950;2022-08-02T06:55:05;3.13;;;2.70;;
55031;SDS011;40928;51.076;7.950;2022-08-02T06:57:31;3.38;;;3.08;;
55031;SDS011;40928;51.076;7.950;2022-08-02T06:59:57;2.33;;;2.13;;
55031;SDS011;40928;51.076;7.950;2022-08-02T07:02:27;3.38;;;2.10;;
55031;SDS011;40928;51.076;7.950;2022-08-02T07:04:53;2.33;;;2.13;;
55031;SDS011;40928;51.076;7.950;2022-08-02T07:07:18;1.88;;;1.70;;
55031;SDS011;40928;51.076;7.950;2022-08-02T07:09:44;2.40;;;1.80;;
55031;SDS011;40928;51.076;7.950;2022-08-02T07:12:10;2.47;;;2.28;;
55031;SDS011;40928;51.076;7.950;2022-08-02T07:14:35;2.42;;;2.08;;
55031;SDS011;40928;51.076;7.950;2022-08-02T07:17:01;3.80;;;2.42;;
55031;SDS011;40928;51.076;7.950;2022-08-02T07:19:26;3.67;;;2.95;;
55031;SDS011;40928;51.076;7.950;2022-08-02T07:21:52;3.15;;;2.47;;
55031;SDS011;40928;51.076;7.950;2022-08-02T07:24:17;5.32;;;2.80;;
55031;SDS011;40928;51.076;7.950;2022-08-02T07:26:43;2.70;;;2.30;;
55031;SDS011;40928;51.076;7.950;2022-08-02T07:29:08;4.55;;;2.95;;
55031;SDS011;40928;51.076;7.950;2022-08-02T07:31:34;2.83;;;1.88;;
55031;SDS011;40928;51.076;7.950;2022-08-02T07:33:59;4.88;;;2.70;;
55031;SDS011;40928;51.076;7.950;2022-08-02T07:36:25;2.75;;;2.17;;
55031;SDS011;40928;51.076;7.950;2022-08-02T07:38:50;2.80;;;2.20;;
55031;SDS011;40928;51.076;7.950;2022-08-02T07:41:17;2.83;;;2.15;;
55031;SDS011;40928;51.076;7.950;2022-08-02T07:43:42;2.90;;;2.53;;
55031;SDS011;40928;51.076;7.950;2022-08-02T07:46:08;2.40;;;2.10;;
55031;SDS011;40928;51.076;7.950;2022-08-02T07:48:33;4.63;;;2.22;;
55031;SDS011;40928;51.076;7.950;2022-08-02T07:50:58;4.32;;;2.10;;
55031;SDS011;40928;51.076;7.950;2022-08-02T07:53:24;3.67;;;1.65;;
55031;SDS011;40928;51.076;7.950;2022-08-02T07:55:50;2.42;;;1.77;;
55031;SDS011;40928;51.076;7.950;2022-08-02T07:58:15;2.13;;;1.77;;
55031;SDS011;40928;51.076;7.950;2022-08-02T08:00:41;2.35;;;1.75;;
55031;SDS011;40928;51.076;7.950;2022-08-02T08:03:07;2.88;;;1.10;;
55031;SDS011;40928;51.076;7.950;2022-08-02T08:05:33;0.85;;;0.60;;
55031;SDS011;40928;51.076;7.950;2022-08-02T08:07:58;1.48;;;0.80;;
55031;SDS011;40928;51.076;7.950;2022-08-02T08:10:24;2.05;;;1.00;;
55031;SDS011;40928;51.076;7.950;2022-08-02T08:12:49;3.65;;;1.58;;
55031;SDS011;40928;51.076;7.950;2022-08-02T08:15:15;3.10;;;1.35;;
55031;SDS011;40928;51.076;7.950;2022-08-02T08:17:41;5.18;;;1.52;;
55031;SDS011;40928;51.076;7.950;2022-08-02T08:20:06;4.53;;;1.40;;
55031;SDS011;40928;51.076;7.950;2022-08-02T08:22:32;1.73;;;1.10;;
55031;SDS011;40928;51.076;7.950;2022-08-02T08:24:57;3.22;;;1.27;;
55031;SDS011;40928;51.076;7.950;2022-08-02T08:27:23;2.88;;;1.30;;
55031;SDS011;40928;51.076;7.950;2022-08-02T08:29:49;2.15;;;1.38;;
55031;SDS011;40928;51.076;7.950;2022-08-02T08:32:14;4.25;;;1.20;;
55031;SDS011;40928;51.076;7.950;2022-08-02T08:34:40;3.90;;;1.48;;
55031;SDS011;40928;51.076;7.950;2022-08-02T08:37:06;4.30;;;1.30;;
55031;SDS011;40928;51.076;7.950;2022-08-02T08:39:31;5.32;;;1.40;;
55031;SDS011;40928;51.076;7.950;2022-08-02T08:41:57;3.17;;;1.73;;
55031;SDS011;40928;51.076;7.950;2022-08-02T08:44:22;3.65;;;1.60;;
55031;SDS011;40928;51.076;7.950;2022-08-02T08:46:48;3.15;;;1.23;;
55031;SDS011;40928;51.076;7.950;2022-08-02T08:49:22;2.55;;;1.00;;
55031;SDS011;40928;51.076;7.950;2022-08-02T08:51:52;1.95;;;1.10;;
55031;SDS011;40928;51.076;7.950;2022-08-02T08:54:21;2.78;;;1.75;;
55031;SDS011;40928;51.076;7.950;2022-08-02T08:56:50;1.67;;;1.38;;
55031;SDS011;40928;51.076;7.950;2022-08-02T08:59:18;8.07;;;1.90;;
55031;SDS011;40928;51.076;7.950;2022-08-02T09:01:44;2.17;;;1.48;;
55031;SDS011;40928;51.076;7.950;2022-08-02T09:04:11;3.88;;;1.20;;
55031;SDS011;40928;51.076;7.950;2022-08-02T09:06:38;2.55;;;1.20;;
55031;SDS011;40928;51.076;7.950;2022-08-02T09:09:05;1.67;;;1.10;;
55031;SDS011;40928;51.076;7.950;2022-08-02T09:11:32;3.70;;;1.40;;
55031;SDS011;40928;51.076;7.950;2022-08-02T09:14:00;2.03;;;1.58;;
55031;SDS011;40928;51.076;7.950;2022-08-02T09:18:56;2.70;;;1.40;;
55031;SDS011;40928;51.076;7.950;2022-08-02T09:21:22;2.50;;;1.42;;
55031;SDS011;40928;51.076;7.950;2022-08-02T09:23:49;5.15;;;1.30;;
55031;SDS011;40928;51.076;7.950;2022-08-02T09:26:21;2.15;;;1.20;;
55031;SDS011;40928;51.076;7.950;2022-08-02T09:28:49;1.88;;;1.25;;
55031;SDS011;40928;51.076;7.950;2022-08-02T09:31:22;1.25;;;1.02;;
55031;SDS011;40928;51.076;7.950;2022-08-02T09:33:52;3.65;;;1.48;;
55031;SDS011;40928;51.076;7.950;2022-08-02T09:36:21;3.15;;;1.17;;
55031;SDS011;40928;51.076;7.950;2022-08-02T09:41:27;4.82;;;1.80;;
55031;SDS011;40928;51.076;7.950;2022-08-02T09:44:06;2.38;;;0.90;;
55031;SDS011;40928;51.076;7.950;2022-08-02T09:46:44;2.38;;;1.45;;
55031;SDS011;40928;51.076;7.950;2022-08-02T09:49:12;5.03;;;1.30;;
55031;SDS011;40928;51.076;7.950;2022-08-02T09:54:22;3.42;;;1.10;;
55031;SDS011;40928;51.076;7.950;2022-08-02T09:56:52;6.50;;;1.48;;
55031;SDS011;40928;51.076;7.950;2022-08-02T09:59:20;2.17;;;1.02;;
55031;SDS011;40928;51.076;7.950;2022-08-02T10:01:49;1.90;;;1.10;;
55031;SDS011;40928;51.076;7.950;2022-08-02T10:04:18;4.75;;;1.42;;
55031;SDS011;40928;51.076;7.950;2022-08-02T10:06:50;2.13;;;0.90;;
55031;SDS011;40928;51.076;7.950;2022-08-02T10:09:17;3.67;;;1.00;;
55031;SDS011;40928;51.076;7.950;2022-08-02T10:11:44;2.45;;;1.10;;
55031;SDS011;40928;51.076;7.950;2022-08-02T10:14:11;2.55;;;0.90;;
55031;SDS011;40928;51.076;7.950;2022-08-02T10:16:37;2.13;;;0.90;;
55031;SDS011;40928;51.076;7.950;2022-08-02T10:19:08;1.20;;;1.02;;
55031;SDS011;40928;51.076;7.950;2022-08-02T10:24:25;1.90;;;1.00;;
55031;SDS011;40928;51.076;7.950;2022-08-02T10:26:52;4.18;;;1.10;;
55031;SDS011;40928;51.076;7.950;2022-08-02T10:29:21;2.10;;;1.08;;
55031;SDS011;40928;51.076;7.950;2022-08-02T10:31:55;2.00;;;1.13;;
55031;SDS011;40928;51.076;7.950;2022-08-02T10:34:26;1.20;;;1.00;;
55031;SDS011;40928;51.076;7.950;2022-08-02T10:37:02;3.78;;;1.77;;
55031;SDS011;40928;51.076;7.950;2022-08-02T10:39:43;2.55;;;0.90;;
55031;SDS011;40928;51.076;7.950;2022-08-02T10:42:10;1.45;;;0.80;;
55031;SDS011;40928;51.076;7.950;2022-08-02T10:44:37;0.90;;;0.60;;
55031;SDS011;40928;51.076;7.950;2022-08-02T10:52:26;2.97;;;1.02;;
55031;SDS011;40928;51.076;7.950;2022-08-02T10:54:58;3.08;;;0.90;;
55031;SDS011;40928;51.076;7.950;2022-08-02T10:57:26;2.13;;;1.23;;
55031;SDS011;40928;51.076;7.950;2022-08-02T10:59:55;1.95;;;1.00;;
55031;SDS011;40928;51.076;7.950;2022-08-02T11:02:42;2.38;;;0.82;;
55031;SDS011;40928;51.076;7.950;2022-08-02T11:05:57;1.40;;;0.52;;
55031;SDS011;40928;51.076;7.950;2022-08-02T11:08:18;2.47;;;1.00;;
55031;SDS011;40928;51.076;7.950;2022-08-02T11:10:44;2.35;;;1.02;;
55031;SDS011;40928;51.076;7.950;2022-08-02T11:13:12;2.35;;;0.70;;
55031;SDS011;40928;51.076;7.950;2022-08-02T11:18:19;1.30;;;0.80;;
55031;SDS011;40928;51.076;7.950;2022-08-02T11:20:46;0.70;;;0.63;;
55031;SDS011;40928;51.076;7.950;2022-08-02T11:23:33;4.97;;;0.90;;
55031;SDS011;40928;51.076;7.950;2022-08-02T11:25:59;4.55;;;0.90;;
55031;SDS011;40928;51.076;7.950;2022-08-02T11:28:25;2.85;;;0.90;;
55031;SDS011;40928;51.076;7.950;2022-08-02T11:30:58;3.80;;;0.80;;
55031;SDS011;40928;51.076;7.950;2022-08-02T11:36:02;3.13;;;0.80;;
55031;SDS011;40928;51.076;7.950;2022-08-02T11:38:30;1.48;;;0.80;;
55031;SDS011;40928;51.076;7.950;2022-08-02T11:40:56;0.93;;;0.65;;
55031;SDS011;40928;51.076;7.950;2022-08-02T11:43:23;4.20;;;0.90;;
55031;SDS011;40928;51.076;7.950;2022-08-02T11:45:51;2.08;;;0.50;;
55031;SDS011;40928;51.076;7.950;2022-08-02T11:48:31;4.70;;;0.93;;
55031;SDS011;40928;51.076;7.950;2022-08-02T11:51:12;1.55;;;0.90;;
55031;SDS011;40928;51.076;7.950;2022-08-02T11:53:41;2.15;;;0.90;;
55031;SDS011;40928;51.076;7.950;2022-08-02T11:56:13;2.03;;;0.88;;
55031;SDS011;40928;51.076;7.950;2022-08-02T11:58:41;1.35;;;0.80;;
55031;SDS011;40928;51.076;7.950;2022-08-02T12:01:26;1.38;;;0.60;;
55031;SDS011;40928;51.076;7.950;2022-08-02T12:03:52;3.42;;;0.90;;
55031;SDS011;40928;51.076;7.950;2022-08-02T12:06:23;2.08;;;0.75;;
55031;SDS011;40928;51.076;7.950;2022-08-02T12:08:50;4.05;;;0.80;;
55031;SDS011;40928;51.076;7.950;2022-08-02T12:11:19;1.52;;;0.75;;
55031;SDS011;40928;51.076;7.950;2022-08-02T12:13:44;3.78;;;0.98;;
55031;SDS011;40928;51.076;7.950;2022-08-02T12:16:11;1.05;;;0.73;;
55031;SDS011;40928;51.076;7.950;2022-08-02T12:18:57;3.45;;;0.70;;
55031;SDS011;40928;51.076;7.950;2022-08-02T12:21:42;1.45;;;0.88;;
55031;SDS011;40928;51.076;7.950;2022-08-02T12:24:07;2.17;;;0.70;;
55031;SDS011;40928;51.076;7.950;2022-08-02T12:31:55;0.82;;;0.70;;
55031;SDS011;40928;51.076;7.950;2022-08-02T12:34:21;2.15;;;0.45;;
55031;SDS011;40928;51.076;7.950;2022-08-02T12:39:32;1.75;;;0.93;;
55031;SDS011;40928;51.076;7.950;2022-08-02T12:42:03;2.28;;;0.73;;
55031;SDS011;40928;51.076;7.950;2022-08-02T12:44:30;2.08;;;0.93;;
55031;SDS011;40928;51.076;7.950;2022-08-02T12:47:03;2.83;;;0.80;;
55031;SDS011;40928;51.076;7.950;2022-08-02T12:49:31;0.80;;;0.70;;
55031;SDS011;40928;51.076;7.950;2022-08-02T12:51:56;2.72;;;0.80;;
55031;SDS011;40928;51.076;7.950;2022-08-02T12:54:24;1.08;;;0.80;;
55031;SDS011;40928;51.076;7.950;2022-08-02T12:57:12;1.85;;;0.80;;
55031;SDS011;40928;51.076;7.950;2022-08-02T12:59:41;1.65;;;0.90;;
55031;SDS011;40928;51.076;7.950;2022-08-02T13:02:10;2.42;;;0.70;;
55031;SDS011;40928;51.076;7.950;2022-08-02T13:04:37;3.03;;;0.73;;
55031;SDS011;40928;51.076;7.950;2022-08-02T13:07:04;3.50;;;0.90;;
55031;SDS011;40928;51.076;7.950;2022-08-02T13:09:37;1.92;;;0.73;;
55031;SDS011;40928;51.076;7.950;2022-08-02T13:12:04;2.38;;;0.73;;
55031;SDS011;40928;51.076;7.950;2022-08-02T13:14:32;2.45;;;1.10;;
55031;SDS011;40928;51.076;7.950;2022-08-02T13:16:59;1.70;;;0.75;;
55031;SDS011;40928;51.076;7.950;2022-08-02T13:19:25;4.03;;;0.93;;
55031;SDS011;40928;51.076;7.950;2022-08-02T13:21:52;0.90;;;0.60;;
55031;SDS011;40928;51.076;7.950;2022-08-02T13:24:19;2.20;;;0.80;;
55031;SDS011;40928;51.076;7.950;2022-08-02T13:26:45;1.15;;;0.70;;
55031;SDS011;40928;51.076;7.950;2022-08-02T13:29:11;4.20;;;0.90;;
55031;SDS011;40928;51.076;7.950;2022-08-02T13:31:37;1.98;;;1.00;;
55031;SDS011;40928;51.076;7.950;2022-08-02T13:34:04;1.38;;;0.80;;
55031;SDS011;40928;51.076;7.950;2022-08-02T13:36:31;1.95;;;0.85;;
55031;SDS011;40928;51.076;7.950;2022-08-02T13:38:58;2.15;;;0.95;;
55031;SDS011;40928;51.076;7.950;2022-08-02T13:41:23;1.17;;;0.88;;
55031;SDS011;40928;51.076;7.950;2022-08-02T13:43:49;1.52;;;0.90;;
55031;SDS011;40928;51.076;7.950;2022-08-02T13:46:15;7.22;;;1.05;;
55031;SDS011;40928;51.076;7.950;2022-08-02T13:48:41;2.67;;;0.80;;
55031;SDS011;40928;51.076;7.950;2022-08-02T13:51:06;1.38;;;0.90;;
55031;SDS011;40928;51.076;7.950;2022-08-02T13:53:39;3.40;;;1.00;;
55031;SDS011;40928;51.076;7.950;2022-08-02T13:56:09;1.23;;;0.70;;
55031;SDS011;40928;51.076;7.950;2022-08-02T13:58:35;1.15;;;0.90;;
55031;SDS011;40928;51.076;7.950;2022-08-02T14:01:00;1.38;;;0.70;;
55031;SDS011;40928;51.076;7.950;2022-08-02T14:03:26;0.98;;;0.70;;
55031;SDS011;40928;51.076;7.950;2022-08-02T14:05:52;1.88;;;1.00;;
55031;SDS011;40928;51.076;7.950;2022-08-02T14:08:19;1.02;;;0.80;;
55031;SDS011;40928;51.076;7.950;2022-08-02T14:10:47;4.22;;;0.80;;
55031;SDS011;40928;51.076;7.950;2022-08-02T14:13:14;2.42;;;0.80;;
55031;SDS011;40928;51.076;7.950;2022-08-02T14:15:40;1.88;;;0.90;;
55031;SDS011;40928;51.076;7.950;2022-08-02T14:18:07;1.08;;;0.95;;
55031;SDS011;40928;51.076;7.950;2022-08-02T14:20:33;0.65;;;0.60;;
55031;SDS011;40928;51.076;7.950;2022-08-02T14:22:59;2.10;;;0.68;;
55031;SDS011;40928;51.076;7.950;2022-08-02T14:25:25;3.60;;;1.08;;
55031;SDS011;40928;51.076;7.950;2022-08-02T14:27:51;1.05;;;0.70;;
55031;SDS011;40928;51.076;7.950;2022-08-02T14:30:17;1.65;;;0.90;;
55031;SDS011;40928;51.076;7.950;2022-08-02T14:32:43;1.90;;;1.13;;
55031;SDS011;40928;51.076;7.950;2022-08-02T14:35:09;1.42;;;0.80;;
55031;SDS011;40928;51.076;7.950;2022-08-02T14:37:35;2.38;;;0.95;;
55031;SDS011;40928;51.076;7.950;2022-08-02T14:42:28;1.70;;;0.82;;
55031;SDS011;40928;51.076;7.950;2022-08-02T14:44:53;1.73;;;1.10;;
55031;SDS011;40928;51.076;7.950;2022-08-02T14:47:19;2.55;;;1.00;;
55031;SDS011;40928;51.076;7.950;2022-08-02T14:49:44;1.60;;;0.95;;
55031;SDS011;40928;51.076;7.950;2022-08-02T14:52:10;0.85;;;0.80;;
55031;SDS011;40928;51.076;7.950;2022-08-02T14:54:38;2.97;;;1.10;;
55031;SDS011;40928;51.076;7.950;2022-08-02T14:57:05;1.70;;;0.80;;
55031;SDS011;40928;51.076;7.950;2022-08-02T14:59:31;3.55;;;0.95;;
55031;SDS011;40928;51.076;7.950;2022-08-02T15:01:57;1.77;;;0.80;;
55031;SDS011;40928;51.076;7.950;2022-08-02T15:04:23;3.90;;;0.70;;
55031;SDS011;40928;51.076;7.950;2022-08-02T15:06:49;0.70;;;0.70;;
55031;SDS011;40928;51.076;7.950;2022-08-02T15:09:15;1.23;;;0.75;;
55031;SDS011;40928;51.076;7.950;2022-08-02T15:11:40;1.13;;;0.60;;
55031;SDS011;40928;51.076;7.950;2022-08-02T15:14:06;1.63;;;0.80;;
55031;SDS011;40928;51.076;7.950;2022-08-02T15:16:31;2.03;;;0.85;;
55031;SDS011;40928;51.076;7.950;2022-08-02T15:19:03;6.53;;;0.77;;
55031;SDS011;40928;51.076;7.950;2022-08-02T15:21:29;1.35;;;0.70;;
55031;SDS011;40928;51.076;7.950;2022-08-02T15:23:55;1.02;;;0.90;;
55031;SDS011;40928;51.076;7.950;2022-08-02T15:26:21;1.50;;;0.95;;
55031;SDS011;40928;51.076;7.950;2022-08-02T15:28:47;0.93;;;0.80;;
55031;SDS011;40928;51.076;7.950;2022-08-02T15:31:13;1.55;;;0.68;;
55031;SDS011;40928;51.076;7.950;2022-08-02T15:33:40;0.93;;;0.70;;
55031;SDS011;40928;51.076;7.950;2022-08-02T15:36:06;1.50;;;0.63;;
55031;SDS011;40928;51.076;7.950;2022-08-02T15:38:32;1.10;;;0.70;;
55031;SDS011;40928;51.076;7.950;2022-08-02T15:40:58;0.80;;;0.70;;